createdAt,value
2023-04-09T00:00:16.634Z,9.14
2023-04-09T00:02:43.513Z,9.15
2023-04-09T00:05:10.608Z,9.13
2023-04-09T00:07:37.384Z,9.13
2023-04-09T00:10:04.640Z,9.18
2023-04-09T00:12:31.491Z,9.15
2023-04-09T00:14:58.400Z,9.16
2023-04-09T00:17:25.305Z,9.14
2023-04-09T00:19:52.095Z,9.19
2023-04-09T00:22:18.972Z,9.22
2023-04-09T00:24:46.087Z,9.17
2023-04-09T00:27:12.908Z,8.94
2023-04-09T00:29:39.823Z,8.82
2023-04-09T00:32:07.339Z,8.72
2023-04-09T00:34:34.740Z,8.68
2023-04-09T00:37:01.868Z,8.64
2023-04-09T00:39:28.791Z,8.53
2023-04-09T00:42:02.796Z,8.40
2023-04-09T00:44:29.780Z,8.33
2023-04-09T00:46:59.972Z,8.29
2023-04-09T00:49:27.383Z,8.25
2023-04-09T00:51:54.721Z,8.22
2023-04-09T00:54:21.877Z,8.14
2023-04-09T00:56:48.740Z,8.09
2023-04-09T00:59:16.015Z,8.03
2023-04-09T01:01:43.081Z,8.00
2023-04-09T01:04:11.632Z,7.88
2023-04-09T01:06:45.435Z,7.85
2023-04-09T01:09:24.566Z,7.93
2023-04-09T01:12:21.228Z,7.79
2023-04-09T01:15:08.872Z,7.66
2023-04-09T01:17:59.188Z,7.71
2023-04-09T01:20:37.738Z,7.71
2023-04-09T01:23:10.727Z,7.66
2023-04-09T01:26:16.469Z,7.59
2023-04-09T01:28:47.394Z,7.54
2023-04-09T01:31:18.928Z,7.44
2023-04-09T01:33:46.956Z,7.41
2023-04-09T01:36:15.916Z,7.32
2023-04-09T01:38:46.567Z,7.26
2023-04-09T01:41:19.325Z,7.21
2023-04-09T01:43:47.625Z,7.25
2023-04-09T01:46:17.566Z,7.22
2023-04-09T01:48:46.407Z,7.25
2023-04-09T01:51:14.210Z,7.21
2023-04-09T01:53:42.075Z,7.18
2023-04-09T01:56:09.848Z,7.02
2023-04-09T01:58:36.787Z,7.04
2023-04-09T02:01:38.478Z,7.06
2023-04-09T02:04:14.373Z,7.00
2023-04-09T02:07:18.087Z,6.88
2023-04-09T02:09:47.642Z,6.79
2023-04-09T02:12:18.506Z,6.69
2023-04-09T02:14:52.232Z,6.66
2023-04-09T02:17:19.760Z,6.52
2023-04-09T02:19:48.224Z,6.45
2023-04-09T02:22:17.303Z,6.45
2023-04-09T02:24:46.126Z,6.48
2023-04-09T02:27:12.900Z,6.46
2023-04-09T02:29:42.156Z,6.28
2023-04-09T02:32:08.996Z,6.21
2023-04-09T02:34:36.172Z,6.10
2023-04-09T02:37:03.214Z,6.07
2023-04-09T02:39:30.265Z,5.99
2023-04-09T02:41:57.803Z,6.07
2023-04-09T02:44:24.685Z,6.06
2023-04-09T02:46:53.662Z,6.10
2023-04-09T02:49:20.445Z,6.11
2023-04-09T02:51:47.512Z,5.99
2023-04-09T02:54:14.386Z,5.85
2023-04-09T02:56:41.207Z,5.83
2023-04-09T02:59:08.233Z,5.85
2023-04-09T03:01:35.196Z,5.82
2023-04-09T03:04:02.773Z,5.89
2023-04-09T03:06:29.764Z,5.92
2023-04-09T03:08:56.557Z,5.82
2023-04-09T03:11:23.312Z,5.85
2023-04-09T03:13:50.160Z,5.88
2023-04-09T03:16:16.979Z,5.89
2023-04-09T03:18:43.757Z,5.87
2023-04-09T03:21:12.823Z,5.84
2023-04-09T03:23:41.540Z,5.71
2023-04-09T03:26:08.321Z,5.74
2023-04-09T03:28:35.520Z,5.74
2023-04-09T03:31:02.525Z,5.81
2023-04-09T03:33:29.302Z,5.77
2023-04-09T03:35:56.183Z,5.75
2023-04-09T03:38:23.807Z,5.72
2023-04-09T03:40:50.813Z,5.66
2023-04-09T03:43:17.668Z,5.60
2023-04-09T03:45:44.472Z,5.61
2023-04-09T03:48:11.226Z,5.46
2023-04-09T03:50:40.825Z,5.36
2023-04-09T03:53:08.007Z,5.28
2023-04-09T03:55:35.087Z,5.26
2023-04-09T03:58:01.953Z,5.24
2023-04-09T04:00:28.802Z,5.13
2023-04-09T04:02:55.873Z,5.07
2023-04-09T04:05:25.387Z,5.24
2023-04-09T04:07:52.404Z,5.11
2023-04-09T04:10:19.626Z,5.07
2023-04-09T04:12:46.532Z,5.02
2023-04-09T04:15:13.455Z,4.94
2023-04-09T04:17:40.310Z,5.00
2023-04-09T04:20:08.096Z,4.98
2023-04-09T04:22:35.617Z,4.93
2023-04-09T04:25:04.392Z,5.00
2023-04-09T04:27:31.613Z,4.97
2023-04-09T04:30:00.182Z,4.89
2023-04-09T04:32:27.309Z,4.89
2023-04-09T04:34:54.420Z,4.85
2023-04-09T04:37:21.659Z,4.83
2023-04-09T04:39:48.824Z,4.94
2023-04-09T04:42:16.795Z,5.03
2023-04-09T04:44:44.942Z,5.09
2023-04-09T04:47:11.790Z,5.03
2023-04-09T04:49:38.617Z,4.90
2023-04-09T04:52:06.700Z,5.03
2023-04-09T04:54:34.449Z,4.91
2023-04-09T04:57:01.555Z,4.81
2023-04-09T04:59:28.867Z,4.74
2023-04-09T05:01:55.863Z,4.67
2023-04-09T05:04:22.945Z,4.63
2023-04-09T05:06:49.843Z,4.59
2023-04-09T05:09:16.961Z,4.63
2023-04-09T05:11:43.796Z,4.79
2023-04-09T05:14:10.857Z,4.63
2023-04-09T05:16:37.782Z,4.52
2023-04-09T05:19:04.798Z,4.48
2023-04-09T05:21:32.092Z,4.44
2023-04-09T05:23:59.063Z,4.44
2023-04-09T05:26:26.800Z,4.62
2023-04-09T05:28:54.061Z,4.78
2023-04-09T05:31:21.207Z,4.79
2023-04-09T05:33:48.092Z,4.85
2023-04-09T05:36:19.745Z,4.93
2023-04-09T05:38:47.620Z,4.89
2023-04-09T05:41:15.310Z,4.80
2023-04-09T05:43:42.999Z,4.77
2023-04-09T05:46:10.004Z,4.86
2023-04-09T05:48:37.439Z,4.88
2023-04-09T05:51:04.396Z,4.83
2023-04-09T05:53:32.068Z,4.80
2023-04-09T05:55:58.972Z,4.94
2023-04-09T05:58:25.878Z,4.92
2023-04-09T06:00:52.805Z,4.84
2023-04-09T06:03:20.649Z,4.84
2023-04-09T06:05:50.740Z,4.99
2023-04-09T06:08:17.566Z,5.08
2023-04-09T06:10:44.331Z,5.17
2023-04-09T06:13:11.194Z,5.21
2023-04-09T06:15:39.378Z,5.35
2023-04-09T06:18:06.846Z,5.43
2023-04-09T06:20:33.955Z,5.43
2023-04-09T06:23:00.838Z,5.45
2023-04-09T06:25:27.736Z,5.48
2023-04-09T06:27:54.545Z,5.57
2023-04-09T06:30:21.914Z,5.71
2023-04-09T06:32:54.444Z,5.74
2023-04-09T06:35:22.730Z,5.68
2023-04-09T06:37:49.651Z,5.60
2023-04-09T06:40:21.361Z,5.68
2023-04-09T06:42:49.668Z,5.85
2023-04-09T06:45:16.460Z,5.94
2023-04-09T06:47:43.476Z,6.00
2023-04-09T06:50:10.722Z,6.17
2023-04-09T06:52:37.830Z,6.25
2023-04-09T06:55:08.684Z,6.36
2023-04-09T06:57:35.869Z,6.41
2023-04-09T07:00:03.456Z,6.47
2023-04-09T07:02:31.093Z,6.57
2023-04-09T07:04:58.024Z,6.70
2023-04-09T07:07:25.827Z,6.88
2023-04-09T07:09:53.666Z,6.98
2023-04-09T07:12:37.609Z,7.10
2023-04-09T07:15:08.737Z,7.23
2023-04-09T07:17:36.183Z,7.31
2023-04-09T07:20:04.983Z,7.35
2023-04-09T07:22:32.376Z,7.38
2023-04-09T07:24:59.442Z,7.52
2023-04-09T07:27:28.613Z,7.67
2023-04-09T07:29:59.819Z,7.84
2023-04-09T07:32:28.235Z,7.98
2023-04-09T07:34:55.773Z,8.12
2023-04-09T07:37:23.286Z,8.32
2023-04-09T07:39:51.330Z,8.52
2023-04-09T07:42:18.282Z,8.66
2023-04-09T07:44:45.124Z,8.83
2023-04-09T07:47:13.434Z,9.03
2023-04-09T07:49:40.779Z,9.22
2023-04-09T07:52:09.039Z,9.45
2023-04-09T07:54:36.532Z,9.68
2023-04-09T07:57:03.873Z,9.87
2023-04-09T07:59:31.829Z,10.06
2023-04-09T08:01:59.462Z,10.30
2023-04-09T08:04:28.140Z,10.48
2023-04-09T08:06:55.330Z,10.61
2023-04-09T08:09:22.862Z,10.86
2023-04-09T08:11:50.375Z,11.06
2023-04-09T08:14:18.511Z,11.32
2023-04-09T08:16:47.687Z,11.48
2023-04-09T08:19:17.835Z,11.51
2023-04-09T08:21:44.772Z,11.70
2023-04-09T08:24:12.182Z,11.96
2023-04-09T08:26:41.339Z,12.22
2023-04-09T08:29:10.674Z,12.41
2023-04-09T08:31:37.797Z,12.38
2023-04-09T08:34:06.090Z,12.62
2023-04-09T08:36:34.933Z,12.90
2023-04-09T08:39:03.420Z,13.24
2023-04-09T08:41:30.801Z,13.15
2023-04-09T08:44:00.019Z,12.90
2023-04-09T08:46:27.930Z,13.28
2023-04-09T08:48:56.076Z,13.82
2023-04-09T08:51:24.934Z,13.62
2023-04-09T08:54:03.965Z,13.18
2023-04-09T08:56:32.142Z,12.81
2023-04-09T08:58:59.357Z,12.48
2023-04-09T09:01:31.764Z,12.16
2023-04-09T09:04:08.191Z,12.00
2023-04-09T09:06:41.287Z,11.82
2023-04-09T09:09:16.721Z,11.73
2023-04-09T09:11:46.994Z,11.77
2023-04-09T09:14:19.887Z,11.79
2023-04-09T09:16:56.113Z,11.81
2023-04-09T09:19:26.251Z,11.89
2023-04-09T09:21:57.463Z,11.95
2023-04-09T09:24:24.337Z,11.96
2023-04-09T09:26:52.469Z,12.05
2023-04-09T09:29:20.023Z,12.25
2023-04-09T09:31:52.570Z,12.39
2023-04-09T09:34:21.849Z,12.42
2023-04-09T09:36:49.490Z,12.51
2023-04-09T09:39:17.858Z,12.97
2023-04-09T09:41:47.599Z,13.51
2023-04-09T09:44:33.023Z,13.77
2023-04-09T09:47:03.994Z,13.85
2023-04-09T09:49:31.009Z,13.99
2023-04-09T09:52:03.096Z,13.75
2023-04-09T09:54:40.499Z,13.59
2023-04-09T09:57:10.958Z,13.47
2023-04-09T09:59:46.519Z,13.39
2023-04-09T10:02:23.312Z,13.42
2023-04-09T10:04:52.837Z,13.30
2023-04-09T10:07:27.009Z,13.31
2023-04-09T10:09:58.647Z,13.16
2023-04-09T10:12:27.161Z,13.09
2023-04-09T10:14:56.473Z,13.01
2023-04-09T10:17:23.310Z,13.06
2023-04-09T10:20:11.109Z,13.07
2023-04-09T10:22:39.081Z,13.05
2023-04-09T10:25:06.947Z,13.09
2023-04-09T10:27:33.892Z,13.22
2023-04-09T10:30:01.811Z,13.47
2023-04-09T10:32:36.777Z,13.64
2023-04-09T10:35:04.701Z,13.58
2023-04-09T10:37:31.833Z,13.46
2023-04-09T10:39:58.868Z,13.34
2023-04-09T10:42:42.140Z,13.23
2023-04-09T10:45:14.900Z,13.14
2023-04-09T10:47:47.155Z,13.06
2023-04-09T10:50:36.486Z,12.87
2023-04-09T10:53:04.864Z,12.85
2023-04-09T10:55:40.828Z,12.83
2023-04-09T10:58:13.305Z,12.93
2023-04-09T11:00:44.399Z,13.12
2023-04-09T11:03:27.401Z,13.29
2023-04-09T11:06:07.165Z,13.81
2023-04-09T11:08:35.395Z,13.80
2023-04-09T11:11:03.594Z,13.50
2023-04-09T11:13:32.547Z,13.39
2023-04-09T11:16:01.239Z,13.44
2023-04-09T11:18:30.659Z,13.48
2023-04-09T11:21:00.798Z,13.42
2023-04-09T11:23:28.485Z,13.34
2023-04-09T11:25:56.615Z,13.35
2023-04-09T11:28:32.601Z,13.58
2023-04-09T11:30:59.759Z,13.66
2023-04-09T11:33:36.850Z,13.67
2023-04-09T11:36:06.885Z,13.70
2023-04-09T11:38:34.039Z,13.68
2023-04-09T11:41:02.210Z,13.72
2023-04-09T11:43:29.249Z,13.95
2023-04-09T11:45:57.644Z,13.99
2023-04-09T11:48:25.095Z,14.03
2023-04-09T11:50:52.796Z,14.17
2023-04-09T11:53:22.064Z,14.28
2023-04-09T11:55:54.727Z,14.32
2023-04-09T11:58:26.615Z,14.49
2023-04-09T12:01:03.383Z,14.48
2023-04-09T12:03:33.288Z,14.52
2023-04-09T12:06:04.020Z,14.76
2023-04-09T12:08:31.784Z,16.40
2023-04-09T12:11:12.834Z,18.35
2023-04-09T12:13:44.418Z,19.11
2023-04-09T12:16:13.200Z,19.19
2023-04-09T12:18:40.755Z,19.79
2023-04-09T12:21:10.714Z,20.04
2023-04-09T12:23:37.609Z,19.49
2023-04-09T12:26:04.900Z,17.19
2023-04-09T12:28:31.960Z,16.19
2023-04-09T12:30:59.668Z,15.72
2023-04-09T12:33:27.258Z,15.43
2023-04-09T12:35:54.158Z,15.47
2023-04-09T12:38:21.313Z,15.43
2023-04-09T12:40:48.208Z,15.19
2023-04-09T12:43:15.654Z,15.09
2023-04-09T12:45:42.486Z,14.85
2023-04-09T12:48:09.519Z,15.05
2023-04-09T12:50:36.558Z,15.16
2023-04-09T12:53:03.368Z,15.74
2023-04-09T12:55:30.284Z,17.92
2023-04-09T12:57:57.467Z,19.10
2023-04-09T13:00:24.686Z,20.23
2023-04-09T13:02:52.934Z,20.72
2023-04-09T13:05:19.943Z,20.94
2023-04-09T13:07:46.723Z,21.33
2023-04-09T13:10:13.734Z,21.68
2023-04-09T13:12:40.876Z,21.88
2023-04-09T13:15:08.056Z,21.91
2023-04-09T13:17:35.257Z,21.67
2023-04-09T13:20:02.102Z,21.55
2023-04-09T13:22:29.206Z,21.51
2023-04-09T13:24:56.294Z,21.23
2023-04-09T13:27:25.296Z,21.71
2023-04-09T13:29:52.280Z,21.67
2023-04-09T13:32:21.332Z,21.79
2023-04-09T13:34:48.179Z,20.63
2023-04-09T13:37:15.712Z,19.29
2023-04-09T13:39:44.707Z,18.70
2023-04-09T13:42:14.021Z,19.22
2023-04-09T13:44:44.512Z,20.86
2023-04-09T13:47:13.136Z,21.16
2023-04-09T13:49:41.259Z,21.85
2023-04-09T13:52:08.839Z,22.25
2023-04-09T13:54:36.469Z,21.40
2023-04-09T13:57:04.259Z,21.33
2023-04-09T13:59:31.308Z,21.86
2023-04-09T14:01:58.383Z,21.33
2023-04-09T14:04:25.482Z,21.64
2023-04-09T14:06:52.401Z,21.48
2023-04-09T14:09:23.140Z,21.14
2023-04-09T14:11:51.164Z,20.37
2023-04-09T14:14:18.511Z,20.03
2023-04-09T14:16:46.842Z,20.85
2023-04-09T14:19:13.590Z,21.30
2023-04-09T14:21:41.262Z,20.89
2023-04-09T14:24:08.167Z,20.55
2023-04-09T14:26:35.274Z,21.02
2023-04-09T14:29:02.317Z,21.41
2023-04-09T14:31:29.304Z,21.64
2023-04-09T14:33:56.752Z,21.81
2023-04-09T14:36:23.529Z,21.69
2023-04-09T14:38:50.379Z,21.44
2023-04-09T14:41:17.443Z,21.52
2023-04-09T14:43:44.268Z,21.26
2023-04-09T14:46:14.074Z,21.29
2023-04-09T14:48:41.156Z,21.32
2023-04-09T14:51:10.824Z,20.88
2023-04-09T14:53:38.221Z,20.79
2023-04-09T14:56:05.642Z,20.86
2023-04-09T14:58:32.453Z,20.70
2023-04-09T15:00:59.296Z,20.09
2023-04-09T15:03:26.333Z,19.87
2023-04-09T15:05:53.469Z,19.75
2023-04-09T15:08:20.469Z,19.13
2023-04-09T15:10:47.298Z,18.48
2023-04-09T15:13:16.157Z,17.87
2023-04-09T15:15:44.876Z,17.20
2023-04-09T15:18:12.845Z,16.88
2023-04-09T15:20:40.842Z,16.69
2023-04-09T15:23:07.923Z,16.65
2023-04-09T15:25:34.814Z,16.62
2023-04-09T15:28:03.553Z,16.63
2023-04-09T15:30:30.776Z,16.48
2023-04-09T15:32:58.283Z,16.36
2023-04-09T15:35:28.992Z,16.15
2023-04-09T15:37:57.536Z,16.03
2023-04-09T15:40:25.306Z,15.86
2023-04-09T15:42:52.280Z,15.83
2023-04-09T15:45:19.239Z,15.79
2023-04-09T15:47:46.874Z,15.83
2023-04-09T15:50:14.470Z,15.79
2023-04-09T15:52:41.616Z,15.75
2023-04-09T15:55:09.154Z,15.58
2023-04-09T15:57:36.327Z,15.52
2023-04-09T16:00:07.087Z,15.58
2023-04-09T16:02:34.315Z,15.61
2023-04-09T16:05:02.162Z,15.55
2023-04-09T16:11:58.519Z,15.47
2023-04-09T16:14:25.519Z,15.33
2023-04-09T16:16:53.753Z,15.21
2023-04-09T16:19:21.358Z,15.19
2023-04-09T16:21:49.013Z,15.26
2023-04-09T16:24:16.001Z,15.15
2023-04-09T16:26:44.888Z,15.10
2023-04-09T16:29:12.730Z,15.03
2023-04-09T16:31:43.169Z,14.92
2023-04-09T16:34:10.227Z,14.88
2023-04-09T16:36:37.108Z,14.89
2023-04-09T16:39:05.156Z,14.87
2023-04-09T16:41:34.345Z,14.79
2023-04-09T16:44:03.190Z,14.77
2023-04-09T16:46:30.229Z,14.75
2023-04-09T16:48:57.044Z,14.67
2023-04-09T16:51:23.872Z,14.64
2023-04-09T16:53:50.639Z,14.65
2023-04-09T16:56:17.500Z,14.67
2023-04-09T16:58:45.887Z,14.61
2023-04-09T17:01:12.750Z,14.57
2023-04-09T17:03:39.662Z,14.56
2023-04-09T17:06:06.755Z,14.53
2023-04-09T17:08:35.259Z,14.48
2023-04-09T17:11:02.373Z,14.42
2023-04-09T17:13:35.731Z,14.32
2023-04-09T17:16:03.868Z,14.29
2023-04-09T17:18:30.646Z,14.30
2023-04-09T17:20:57.544Z,14.29
2023-04-09T17:23:24.392Z,14.23
2023-04-09T17:25:51.488Z,14.19
2023-04-09T17:28:19.081Z,14.18
2023-04-09T17:30:46.188Z,14.13
2023-04-09T17:33:13.278Z,14.08
2023-04-09T17:35:42.289Z,14.08
2023-04-09T17:38:09.194Z,13.99
2023-04-09T17:40:36.016Z,13.98
2023-04-09T17:43:02.766Z,13.97
2023-04-09T17:45:29.561Z,13.94
2023-04-09T17:47:57.000Z,13.89
2023-04-09T17:50:24.802Z,13.86
2023-04-09T17:52:51.941Z,13.80
2023-04-09T17:55:19.342Z,13.78
2023-04-09T17:57:46.270Z,13.74
2023-04-09T18:00:14.223Z,13.70
2023-04-09T18:02:41.933Z,13.64
2023-04-09T18:05:09.841Z,13.62
2023-04-09T18:07:36.757Z,13.54
2023-04-09T18:10:04.745Z,13.45
2023-04-09T18:12:32.228Z,13.40
2023-04-09T18:14:59.013Z,13.39
2023-04-09T18:17:26.370Z,13.37
2023-04-09T18:19:58.272Z,13.26
2023-04-09T18:22:26.776Z,13.16
2023-04-09T18:24:54.176Z,13.09
2023-04-09T18:27:21.559Z,12.99
2023-04-09T18:29:51.188Z,12.80
2023-04-09T18:32:19.620Z,12.66
2023-04-09T18:34:47.659Z,12.52
2023-04-09T18:37:15.608Z,12.39
2023-04-09T18:39:42.573Z,12.31
2023-04-09T18:42:09.752Z,12.18
2023-04-09T18:44:37.453Z,12.09
2023-04-09T18:47:09.619Z,12.05
2023-04-09T18:49:36.911Z,11.92
2023-04-09T18:52:09.111Z,11.82
2023-04-09T18:54:37.170Z,11.77
2023-04-09T18:57:04.467Z,11.75
2023-04-09T18:59:33.471Z,11.67
2023-04-09T19:02:03.574Z,11.60
2023-04-09T19:04:36.486Z,11.55
2023-04-09T19:07:03.777Z,11.41
2023-04-09T19:09:31.939Z,11.31
2023-04-09T19:11:59.042Z,11.14
2023-04-09T19:14:26.070Z,11.13
2023-04-09T19:16:53.094Z,11.03
2023-04-09T19:19:20.141Z,10.84
2023-04-09T19:21:47.106Z,10.81
2023-04-09T19:24:14.009Z,10.72
2023-04-09T19:26:40.983Z,10.63
2023-04-09T19:29:08.129Z,10.62
2023-04-09T19:31:35.212Z,10.57
2023-04-09T19:34:02.136Z,10.44
2023-04-09T19:36:31.191Z,10.43
2023-04-09T19:38:58.110Z,10.48
2023-04-09T19:41:24.917Z,10.55
2023-04-09T19:43:51.770Z,10.48
2023-04-09T19:46:18.671Z,10.39
2023-04-09T19:48:48.117Z,10.36
2023-04-09T19:51:19.929Z,10.23
2023-04-09T19:53:47.815Z,10.17
2023-04-09T19:56:15.630Z,10.06
2023-04-09T19:58:43.856Z,10.00
2023-04-09T20:01:13.105Z,9.87
2023-04-09T20:03:40.226Z,9.88
2023-04-09T20:06:09.509Z,9.96
2023-04-09T20:08:38.438Z,9.95
2023-04-09T20:11:05.818Z,9.85
2023-04-09T20:13:35.587Z,9.74
2023-04-09T20:16:02.392Z,9.74
2023-04-09T20:18:29.303Z,9.66
2023-04-09T20:20:56.128Z,9.74
2023-04-09T20:23:23.014Z,9.77
2023-04-09T20:25:55.193Z,9.73
2023-04-09T20:28:23.038Z,9.79
2023-04-09T20:30:50.474Z,9.76
2023-04-09T20:33:18.518Z,9.68
2023-04-09T20:35:45.821Z,9.71
2023-04-09T20:38:12.830Z,9.74
2023-04-09T20:40:39.698Z,9.68
2023-04-09T20:43:06.569Z,9.59
2023-04-09T20:45:33.527Z,9.51
2023-04-09T20:48:01.743Z,9.43
2023-04-09T20:50:29.915Z,9.31
2023-04-09T20:52:58.458Z,9.31
2023-04-09T20:55:25.867Z,9.26
2023-04-09T20:57:58.197Z,9.19
2023-04-09T21:00:25.117Z,9.14
2023-04-09T21:02:51.923Z,9.24
2023-04-09T21:05:23.469Z,9.28
2023-04-09T21:07:54.459Z,9.22
2023-04-09T21:10:21.852Z,9.15
2023-04-09T21:12:48.847Z,9.11
2023-04-09T21:15:16.240Z,9.02
2023-04-09T21:17:43.120Z,9.03
2023-04-09T21:20:10.839Z,8.93
2023-04-09T21:22:37.808Z,8.86
2023-04-09T21:25:05.258Z,8.80
2023-04-09T21:27:32.107Z,8.84
2023-04-09T21:30:00.326Z,8.81
2023-04-09T21:32:27.979Z,8.87
2023-04-09T21:34:55.284Z,8.81
2023-04-09T21:37:22.587Z,8.74
2023-04-09T21:39:49.660Z,8.66
2023-04-09T21:42:16.798Z,8.59
2023-04-09T21:44:43.912Z,8.55
2023-04-09T21:47:12.117Z,8.54
2023-04-09T21:49:42.729Z,8.51
2023-04-09T21:52:14.746Z,8.51
2023-04-09T21:54:43.581Z,8.49
2023-04-09T21:57:11.179Z,8.44
2023-04-09T21:59:38.408Z,8.42
2023-04-09T22:02:05.644Z,8.42
2023-04-09T22:04:34.869Z,8.53
2023-04-09T22:07:03.181Z,8.49
2023-04-09T22:09:30.741Z,8.50
2023-04-09T22:11:58.625Z,8.47
2023-04-09T22:14:32.552Z,8.46
2023-04-09T22:17:01.566Z,8.42
2023-04-09T22:19:31.421Z,8.46
2023-04-09T22:21:58.898Z,8.40
2023-04-09T22:24:30.122Z,8.42
2023-04-09T22:26:58.856Z,8.44
2023-04-09T22:29:27.675Z,8.47
2023-04-09T22:31:58.632Z,8.56
2023-04-09T22:34:27.164Z,8.57
2023-04-09T22:36:54.306Z,8.48
2023-04-09T22:39:21.632Z,8.42
2023-04-09T22:41:48.705Z,8.39
2023-04-09T22:44:15.430Z,8.42
2023-04-09T22:46:42.496Z,8.45
2023-04-09T22:49:09.498Z,8.41
2023-04-09T22:51:36.458Z,8.36
2023-04-09T22:54:03.747Z,8.39
2023-04-09T22:56:32.076Z,8.41
2023-04-09T22:58:59.293Z,8.41
2023-04-09T23:01:27.164Z,8.44
2023-04-09T23:03:55.976Z,8.38
2023-04-09T23:06:25.066Z,8.31
2023-04-09T23:08:52.269Z,8.24
2023-04-09T23:11:19.199Z,8.18
2023-04-09T23:13:46.069Z,8.09
2023-04-09T23:16:13.958Z,7.86
2023-04-09T23:18:40.990Z,7.80
2023-04-09T23:21:09.373Z,7.78
2023-04-09T23:23:38.089Z,7.83
2023-04-09T23:26:05.855Z,7.86
2023-04-09T23:28:32.957Z,7.88
2023-04-09T23:30:59.862Z,7.89
2023-04-09T23:33:27.909Z,7.78
2023-04-09T23:35:55.195Z,7.68
2023-04-09T23:38:22.573Z,7.75
2023-04-09T23:40:49.838Z,7.76
2023-04-09T23:43:16.805Z,7.75
2023-04-09T23:45:44.546Z,7.73
2023-04-09T23:48:12.768Z,7.65
2023-04-09T23:50:41.525Z,7.64
2023-04-09T23:53:09.078Z,7.64
2023-04-09T23:55:40.958Z,7.59
2023-04-09T23:58:10.608Z,7.61
